Aviation Digital Data Service (ADDS)

Output produced by METARs form (1013 UTC 31 August 2014)
found at http://www.aviationweather.gov/adds/metars/
 
KLNS 310953Z 13004KT 7SM OVC010 22/21 A3009 RMK AO2 SLP186 T02220206 $
KLNS 310940Z 3110/0106 13006KT P6SM BKN010 
     FM311500 23006KT P6SM VCSH BKN040